sensor_id;sensor_type;location;lat;lon;timestamp;pressure;altitude;pressure_sealevel;temperature;humidity
24013;BME280;12220;50.194;18.948;2023-02-03T05:33:38;102319.37;;;1.31;69.30
24013;BME280;12220;50.194;18.948;2023-02-03T05:35:43;102314.87;;;1.30;69.34
24013;BME280;12220;50.194;18.948;2023-02-03T05:37:45;102308.60;;;1.28;69.36
24013;BME280;12220;50.194;18.948;2023-02-03T05:39:47;102319.37;;;1.27;69.31
24013;BME280;12220;50.194;18.948;2023-02-03T05:41:49;102303.20;;;1.22;69.30
24013;BME280;12220;50.194;18.948;2023-02-03T05:43:58;102296.05;;;1.19;69.28
24013;BME280;12220;50.194;18.948;2023-02-03T05:46:04;102306.85;;;1.15;69.25
24013;BME280;12220;50.194;18.948;2023-02-03T05:48:06;102299.70;;;1.11;69.32
24013;BME280;12220;50.194;18.948;2023-02-03T05:50:10;102290.70;;;1.09;69.42
24013;BME280;12220;50.194;18.948;2023-02-03T05:52:14;102283.50;;;1.08;69.52
24013;BME280;12220;50.194;18.948;2023-02-03T05:54:18;102282.63;;;1.06;69.59
24013;BME280;12220;50.194;18.948;2023-02-03T05:56:20;102281.74;;;1.05;69.62
24013;BME280;12220;50.194;18.948;2023-02-03T05:58:22;102282.63;;;1.06;69.64
24013;BME280;12220;50.194;18.948;2023-02-03T06:00:29;102281.74;;;1.05;69.67
24013;BME280;12220;50.194;18.948;2023-02-03T06:02:31;102276.36;;;1.03;69.69
24013;BME280;12220;50.194;18.948;2023-02-03T06:04:32;102267.37;;;1.01;69.70
24013;BME280;12220;50.194;18.948;2023-02-03T06:06:34;102269.17;;;1.01;69.70
24013;BME280;12220;50.194;18.948;2023-02-03T06:08:44;102282.66;;;1.01;69.73
24013;BME280;12220;50.194;18.948;2023-02-03T06:10:45;102337.52;;;1.00;69.78
24013;BME280;12220;50.194;18.948;2023-02-03T06:12:47;102261.08;;;1.01;69.82
24013;BME280;12220;50.194;18.948;2023-02-03T06:14:49;102258.40;;;0.99;69.85
24013;BME280;12220;50.194;18.948;2023-02-03T06:16:59;102247.61;;;0.99;69.78
24013;BME280;12220;50.194;18.948;2023-02-03T06:19:00;102258.40;;;0.99;69.81
24013;BME280;12220;50.194;18.948;2023-02-03T06:21:02;102258.38;;;1.01;69.88
24013;BME280;12220;50.194;18.948;2023-02-03T06:23:03;102256.57;;;1.01;69.84
24013;BME280;12220;50.194;18.948;2023-02-03T06:25:14;102255.68;;;1.01;69.74
24013;BME280;12220;50.194;18.948;2023-02-03T06:27:16;102246.67;;;1.00;69.89
24013;BME280;12220;50.194;18.948;2023-02-03T06:29:17;102246.67;;;1.00;69.76
24013;BME280;12220;50.194;18.948;2023-02-03T06:31:19;102240.39;;;1.01;69.76
24013;BME280;12220;50.194;18.948;2023-02-03T06:33:29;102241.29;;;0.99;69.61
24013;BME280;12220;50.194;18.948;2023-02-03T06:35:31;102239.52;;;0.98;69.63
24013;BME280;12220;50.194;18.948;2023-02-03T06:37:33;102235.01;;;0.98;69.72
24013;BME280;12220;50.194;18.948;2023-02-03T06:39:36;102055.12;;;-0.30;69.62
24013;BME280;12220;50.194;18.948;2023-02-03T06:41:44;102232.30;;;1.00;69.59
24013;BME280;12220;50.194;18.948;2023-02-03T06:43:46;102224.23;;;0.97;69.41
24013;BME280;12220;50.194;18.948;2023-02-03T06:45:47;102222.45;;;0.94;69.37
24013;BME280;12220;50.194;18.948;2023-02-03T06:47:49;102211.67;;;0.93;69.40
24013;BME280;12220;50.194;18.948;2023-02-03T06:49:59;102218.85;;;0.94;69.48
24013;BME280;12220;50.194;18.948;2023-02-03T06:52:09;102221.57;;;0.92;69.57
24013;BME280;12220;50.194;18.948;2023-02-03T06:54:14;102214.34;;;0.96;69.68
24013;BME280;12220;50.194;18.948;2023-02-03T06:56:15;102208.05;;;0.97;69.68
24013;BME280;12220;50.194;18.948;2023-02-03T06:58:19;102209.83;;;1.01;69.66
24013;BME280;12220;50.194;18.948;2023-02-03T07:00:21;102211.63;;;1.03;69.64
24013;BME280;12220;50.194;18.948;2023-02-03T07:02:25;102208.92;;;1.03;69.59
24013;BME280;12220;50.194;18.948;2023-02-03T07:04:27;102198.10;;;1.07;69.59
24013;BME280;12220;50.194;18.948;2023-02-03T07:06:34;102198.08;;;1.10;69.66
24013;BME280;12220;50.194;18.948;2023-02-03T07:08:35;102193.55;;;1.12;69.67
24013;BME280;12220;50.194;18.948;2023-02-03T07:10:37;102204.30;;;1.16;69.58
24013;BME280;12220;50.194;18.948;2023-02-03T07:12:38;102191.73;;;1.17;69.52
24013;BME280;12220;50.194;18.948;2023-02-03T07:14:49;102190.81;;;1.19;69.43
24013;BME280;12220;50.194;18.948;2023-02-03T07:16:50;102186.30;;;1.20;69.34
24013;BME280;12220;50.194;18.948;2023-02-03T07:18:54;102176.38;;;1.22;69.35
24013;BME280;12220;50.194;18.948;2023-02-03T07:20:55;102173.65;;;1.25;69.31
24013;BME280;12220;50.194;18.948;2023-02-03T07:23:04;102164.63;;;1.28;69.28
24013;BME280;12220;50.194;18.948;2023-02-03T07:25:06;102161.02;;;1.30;69.23
24013;BME280;12220;50.194;18.948;2023-02-03T07:27:10;102169.09;;;1.33;69.12
24013;BME280;12220;50.194;18.948;2023-02-03T07:29:11;102166.38;;;1.35;69.01
24013;BME280;12220;50.194;18.948;2023-02-03T07:31:19;102156.48;;;1.34;68.31
24013;BME280;12220;50.194;18.948;2023-02-03T07:33:21;102157.41;;;1.33;68.36
24013;BME280;12220;50.194;18.948;2023-02-03T07:35:22;102155.59;;;1.33;68.41
24013;BME280;12220;50.194;18.948;2023-02-03T07:37:25;102152.88;;;1.35;68.44
24013;BME280;12220;50.194;18.948;2023-02-03T07:39:34;102153.78;;;1.37;68.37
24013;BME280;12220;50.194;18.948;2023-02-03T07:41:36;102150.17;;;1.36;68.24
24013;BME280;12220;50.194;18.948;2023-02-03T07:43:37;102153.76;;;1.38;68.25
24013;BME280;12220;50.194;18.948;2023-02-03T07:45:39;102147.41;;;1.41;68.20
24013;BME280;12220;50.194;18.948;2023-02-03T07:47:50;102143.82;;;1.42;67.57
24013;BME280;12220;50.194;18.948;2023-02-03T07:49:51;102140.24;;;1.42;67.51
24013;BME280;12220;50.194;18.948;2023-02-03T07:51:55;102133.04;;;1.41;67.51
24013;BME280;12220;50.194;18.948;2023-02-03T07:53:58;102123.10;;;1.43;67.62
24013;BME280;12220;50.194;18.948;2023-02-03T07:56:05;102117.71;;;1.46;67.70
24013;BME280;12220;50.194;18.948;2023-02-03T07:58:06;102109.55;;;1.50;67.79
24013;BME280;12220;50.194;18.948;2023-02-03T08:00:13;102105.90;;;1.53;67.77
24013;BME280;12220;50.194;18.948;2023-02-03T08:02:14;102096.88;;;1.55;67.22
24013;BME280;12220;50.194;18.948;2023-02-03T08:04:20;102093.30;;;1.55;66.86
24013;BME280;12220;50.194;18.948;2023-02-03T08:06:21;102090.55;;;1.58;66.92
24013;BME280;12220;50.194;18.948;2023-02-03T08:08:23;102086.98;;;1.58;66.68
24013;BME280;12220;50.194;18.948;2023-02-03T08:10:25;102086.06;;;1.57;66.35
24013;BME280;12220;50.194;18.948;2023-02-03T08:12:35;102087.84;;;1.60;66.53
24013;BME280;12220;50.194;18.948;2023-02-03T08:14:36;102074.37;;;1.58;66.23
24013;BME280;12220;50.194;18.948;2023-02-03T08:16:38;102072.53;;;1.60;66.31
24013;BME280;12220;50.194;18.948;2023-02-03T08:18:40;102064.44;;;1.59;66.33
24013;BME280;12220;50.194;18.948;2023-02-03T08:20:51;102070.80;;;1.56;66.10
24013;BME280;12220;50.194;18.948;2023-02-03T08:22:52;102063.60;;;1.55;66.14
24013;BME280;12220;50.194;18.948;2023-02-03T08:24:54;102068.98;;;1.56;66.37
24013;BME280;12220;50.194;18.948;2023-02-03T08:26:59;102065.38;;;1.58;66.64
24013;BME280;12220;50.194;18.948;2023-02-03T08:31:34;102064.44;;;1.62;67.21
24013;BME280;12220;50.194;18.948;2023-02-03T08:33:36;102056.34;;;1.62;67.58
24013;BME280;12220;50.194;18.948;2023-02-03T08:35:38;102065.27;;;1.65;67.69
24013;BME280;12220;50.194;18.948;2023-02-03T08:37:40;102056.28;;;1.66;68.68
24013;BME280;12220;50.194;18.948;2023-02-03T08:39:42;102055.38;;;1.64;69.35
24013;BME280;12220;50.194;18.948;2023-02-03T08:41:44;102059.02;;;1.60;70.17
24013;BME280;12220;50.194;18.948;2023-02-03T08:43:48;102056.36;;;1.57;70.30
24013;BME280;12220;50.194;18.948;2023-02-03T08:45:50;102050.98;;;1.55;70.57
24013;BME280;12220;50.194;18.948;2023-02-03T08:47:57;102051.92;;;1.54;70.80
24013;BME280;12220;50.194;18.948;2023-02-03T08:49:59;102045.61;;;1.54;71.25
24013;BME280;12220;50.194;18.948;2023-02-03T08:52:03;102042.89;;;1.55;71.21
24013;BME280;12220;50.194;18.948;2023-02-03T08:54:05;102038.38;;;1.58;71.47
24013;BME280;12220;50.194;18.948;2023-02-03T08:58:40;102033.78;;;1.64;72.01
24013;BME280;12220;50.194;18.948;2023-02-03T09:00:41;102024.75;;;1.67;71.88
24013;BME280;12220;50.194;18.948;2023-02-03T09:02:43;102017.56;;;1.66;72.21
24013;BME280;12220;50.194;18.948;2023-02-03T09:04:45;102007.68;;;1.66;72.20
24013;BME280;12220;50.194;18.948;2023-02-03T09:06:50;102012.11;;;1.69;72.30
24013;BME280;12220;50.194;18.948;2023-02-03T09:08:54;101994.98;;;1.71;72.30
24013;BME280;12220;50.194;18.948;2023-02-03T09:10:58;101995.91;;;1.72;72.55
24013;BME280;12220;50.194;18.948;2023-02-03T09:13:00;101992.23;;;1.74;72.54
24013;BME280;12220;50.194;18.948;2023-02-03T09:15:05;101993.13;;;1.77;72.70
24013;BME280;12220;50.194;18.948;2023-02-03T09:17:07;101992.20;;;1.79;72.70
24013;BME280;12220;50.194;18.948;2023-02-03T09:19:09;101980.45;;;1.82;72.73
24013;BME280;12220;50.194;18.948;2023-02-03T09:21:12;101983.98;;;1.87;72.80
24013;BME280;12220;50.194;18.948;2023-02-03T09:23:19;101974.04;;;1.89;72.87
24013;BME280;12220;50.194;18.948;2023-02-03T09:25:20;101968.59;;;1.92;72.91
24013;BME280;12220;50.194;18.948;2023-02-03T09:27:22;101962.27;;;1.93;73.01
24013;BME280;12220;50.194;18.948;2023-02-03T09:29:23;101947.87;;;1.94;72.95
24013;BME280;12220;50.194;18.948;2023-02-03T09:31:34;101938.84;;;1.97;73.00
24013;BME280;12220;50.194;18.948;2023-02-03T09:33:36;101929.81;;;1.96;73.08
24013;BME280;12220;50.194;18.948;2023-02-03T09:35:38;101922.62;;;1.97;73.17
24013;BME280;12220;50.194;18.948;2023-02-03T09:37:40;101916.30;;;1.96;73.16
24013;BME280;12220;50.194;18.948;2023-02-03T09:39:49;101913.58;;;1.98;73.26
24013;BME280;12220;50.194;18.948;2023-02-03T09:46:26;101891.09;;;1.97;73.53
24013;BME280;12220;50.194;18.948;2023-02-03T09:48:37;101880.27;;;1.97;73.53
24013;BME280;12220;50.194;18.948;2023-02-03T09:50:43;101882.98;;;1.97;73.57
24013;BME280;12220;50.194;18.948;2023-02-03T09:52:57;101868.59;;;1.97;73.64
24013;BME280;12220;50.194;18.948;2023-02-03T09:57:20;101841.55;;;1.98;73.81
24013;BME280;12220;50.194;18.948;2023-02-03T09:59:23;101836.96;;;2.02;73.93
24013;BME280;12220;50.194;18.948;2023-02-03T10:01:29;101821.61;;;2.04;73.96
24013;BME280;12220;50.194;18.948;2023-02-03T10:03:51;101820.62;;;2.09;73.97
24013;BME280;12220;50.194;18.948;2023-02-03T10:11:00;101797.18;;;2.12;74.15
24013;BME280;12220;50.194;18.948;2023-02-03T10:17:52;101769.22;;;2.14;74.28
24013;BME280;12220;50.194;18.948;2023-02-03T10:20:05;101771.01;;;2.14;74.38
24013;BME280;12220;50.194;18.948;2023-02-03T10:22:16;101760.20;;;2.14;74.46
24013;BME280;12220;50.194;18.948;2023-02-03T10:24:23;101737.73;;;2.12;74.56
24013;BME280;12220;50.194;18.948;2023-02-03T10:26:27;101731.42;;;2.11;74.63
24013;BME280;12220;50.194;18.948;2023-02-03T10:28:48;101737.71;;;2.13;74.81
24013;BME280;12220;50.194;18.948;2023-02-03T10:31:16;101726.93;;;2.12;74.84
24013;BME280;12220;50.194;18.948;2023-02-03T10:33:20;101722.43;;;2.11;74.89
24013;BME280;12220;50.194;18.948;2023-02-03T10:40:11;101703.51;;;2.11;75.23
24013;BME280;12220;50.194;18.948;2023-02-03T10:42:14;101690.95;;;2.08;75.29
24013;BME280;12220;50.194;18.948;2023-02-03T10:44:24;101694.56;;;2.08;75.38
24013;BME280;12220;50.194;18.948;2023-02-03T10:46:30;101693.69;;;2.06;75.49
24013;BME280;12220;50.194;18.948;2023-02-03T10:48:35;101674.80;;;2.05;75.50
24013;BME280;12220;50.194;18.948;2023-02-03T10:50:43;101673.02;;;2.04;75.59
24013;BME280;12220;50.194;18.948;2023-02-03T10:52:47;101670.32;;;2.04;75.68
24013;BME280;12220;50.194;18.948;2023-02-03T10:55:05;101661.33;;;2.03;75.64
24013;BME280;12220;50.194;18.948;2023-02-03T10:57:12;101646.95;;;2.03;75.69
24013;BME280;12220;50.194;18.948;2023-02-03T11:03:42;101629.76;;;2.07;75.88
24013;BME280;12220;50.194;18.948;2023-02-03T11:05:44;101662.15;;;2.08;75.91
24013;BME280;12220;50.194;18.948;2023-02-03T11:07:46;101619.80;;;2.09;75.99
24013;BME280;12220;50.194;18.948;2023-02-03T11:09:48;101616.17;;;2.10;75.98
24013;BME280;12220;50.194;18.948;2023-02-03T11:14:10;101597.20;;;2.13;75.96
24013;BME280;12220;50.194;18.948;2023-02-03T11:16:18;101593.62;;;2.11;76.12
24013;BME280;12220;50.194;18.948;2023-02-03T11:20:35;101563.93;;;2.09;76.10
24013;BME280;12220;50.194;18.948;2023-02-03T11:22:37;101557.66;;;2.09;76.18
24013;BME280;12220;50.194;18.948;2023-02-03T11:24:43;101545.96;;;2.08;76.27
24013;BME280;12220;50.194;18.948;2023-02-03T11:29:02;101527.89;;;2.11;76.36
24013;BME280;12220;50.194;18.948;2023-02-03T11:31:14;101521.65;;;2.08;76.52
24013;BME280;12220;50.194;18.948;2023-02-03T11:33:19;101517.16;;;2.07;76.63
24013;BME280;12220;50.194;18.948;2023-02-03T11:35:27;101495.55;;;2.07;76.64
24013;BME280;12220;50.194;18.948;2023-02-03T11:37:39;101500.04;;;2.08;76.74
24013;BME280;12220;50.194;18.948;2023-02-03T11:39:43;101491.92;;;2.08;76.80
24013;BME280;12220;50.194;18.948;2023-02-03T11:41:46;101494.56;;;2.12;76.86
24013;BME280;12220;50.194;18.948;2023-02-03T11:43:48;101474.70;;;2.14;77.09
24013;BME280;12220;50.194;18.948;2023-02-03T11:45:58;101481.88;;;2.14;77.09
24013;BME280;12220;50.194;18.948;2023-02-03T11:52:31;101440.40;;;2.16;77.31
24013;BME280;12220;50.194;18.948;2023-02-03T12:06:23;101399.98;;;2.12;78.56
24013;BME280;12220;50.194;18.948;2023-02-03T12:15:49;101365.53;;;2.20;79.08
24013;BME280;12220;50.194;18.948;2023-02-03T12:25:27;101344.66;;;2.26;79.82
24013;BME280;12220;50.194;18.948;2023-02-03T12:29:56;101334.59;;;2.33;79.91
24013;BME280;12220;50.194;18.948;2023-02-03T12:36:57;101317.34;;;2.39;80.31
24013;BME280;12220;50.194;18.948;2023-02-03T12:39:05;101299.29;;;2.39;80.47
24013;BME280;12220;50.194;18.948;2023-02-03T12:41:18;101281.23;;;2.40;80.69
24013;BME280;12220;50.194;18.948;2023-02-03T12:45:38;101277.57;;;2.42;81.00
24013;BME280;12220;50.194;18.948;2023-02-03T12:47:54;101274.88;;;2.42;81.25
24013;BME280;12220;50.194;18.948;2023-02-03T12:50:03;101263.09;;;2.45;81.05
24013;BME280;12220;50.194;18.948;2023-02-03T12:52:15;101265.75;;;2.47;81.15
24013;BME280;12220;50.194;18.948;2023-02-03T12:56:42;101253.93;;;2.51;81.33
24013;BME280;12220;50.194;18.948;2023-02-03T13:01:20;101246.73;;;2.50;81.55
24013;BME280;12220;50.194;18.948;2023-02-03T13:03:34;101239.45;;;2.52;81.53
24013;BME280;12220;50.194;18.948;2023-02-03T13:08:00;101230.52;;;2.50;81.72
24013;BME280;12220;50.194;18.948;2023-02-03T13:10:18;101225.16;;;2.48;81.78
24013;BME280;12220;50.194;18.948;2023-02-03T13:12:40;101218.88;;;2.46;82.03
24013;BME280;12220;50.194;18.948;2023-02-03T13:14:47;101208.12;;;2.44;81.94
24013;BME280;12220;50.194;18.948;2023-02-03T13:16:59;101213.52;;;2.44;82.08
24013;BME280;12220;50.194;18.948;2023-02-03T13:19:05;101195.61;;;2.42;82.04
24013;BME280;12220;50.194;18.948;2023-02-03T13:21:10;101181.18;;;2.41;82.12
24013;BME280;12220;50.194;18.948;2023-02-03T13:23:16;101183.05;;;2.39;82.22
24013;BME280;12220;50.194;18.948;2023-02-03T13:25:25;101168.63;;;2.40;82.13
24013;BME280;12220;50.194;18.948;2023-02-03T13:29:51;101157.92;;;2.36;82.35
24013;BME280;12220;50.194;18.948;2023-02-03T13:41:09;101121.24;;;2.27;83.09
24013;BME280;12220;50.194;18.948;2023-02-03T13:43:36;101126.65;;;2.27;83.23
24013;BME280;12220;50.194;18.948;2023-02-03T13:45:47;101126.60;;;2.29;83.15
24013;BME280;12220;50.194;18.948;2023-02-03T13:47:53;100887.50;;;0.94;82.97
24013;BME280;12220;50.194;18.948;2023-02-03T13:50:03;101118.43;;;2.32;83.14
24013;BME280;12220;50.194;18.948;2023-02-03T14:00:01;101088.37;;;2.42;83.49
24013;BME280;12220;50.194;18.948;2023-02-03T14:01:37;101083.78;;;2.44;83.41
24013;BME280;12220;50.194;18.948;2023-02-03T14:03:41;101084.78;;;2.42;83.41
24013;BME280;12220;50.194;18.948;2023-02-03T14:05:53;101076.73;;;2.40;83.43
24013;BME280;12220;50.194;18.948;2023-02-03T14:07:55;101066.84;;;2.39;83.51
24013;BME280;12220;50.194;18.948;2023-02-03T14:16:40;101051.49;;;2.40;83.78
24013;BME280;12220;50.194;18.948;2023-02-03T14:18:49;101043.29;;;2.43;83.71
24013;BME280;12220;50.194;18.948;2023-02-03T14:20:54;101045.07;;;2.44;83.76
24013;BME280;12220;50.194;18.948;2023-02-03T14:23:05;101036.91;;;2.46;83.69
24013;BME280;12220;50.194;18.948;2023-02-03T14:25:06;101025.13;;;2.48;83.66
24013;BME280;12220;50.194;18.948;2023-02-03T14:29:31;101014.16;;;2.53;83.57
24013;BME280;12220;50.194;18.948;2023-02-03T14:33:56;101000.63;;;2.53;83.64
24013;BME280;12220;50.194;18.948;2023-02-03T14:35:57;100999.77;;;2.52;83.60
24013;BME280;12220;50.194;18.948;2023-02-03T14:38:06;100996.05;;;2.55;83.59
24013;BME280;12220;50.194;18.948;2023-02-03T14:59:56;101016.54;;;2.62;84.04
24013;BME280;12220;50.194;18.948;2023-02-03T15:02:10;101003.92;;;2.63;84.10
24013;BME280;12220;50.194;18.948;2023-02-03T15:04:20;100992.13;;;2.65;84.04
24013;BME280;12220;50.194;18.948;2023-02-03T15:08:45;101020.00;;;2.67;84.31
24013;BME280;12220;50.194;18.948;2023-02-03T15:10:47;101001.89;;;2.69;84.17
24013;BME280;12220;50.194;18.948;2023-02-03T15:12:51;101015.36;;;2.71;84.30
24013;BME280;12220;50.194;18.948;2023-02-03T15:14:53;101014.43;;;2.72;84.26
24013;BME280;12220;50.194;18.948;2023-02-03T15:17:01;101020.69;;;2.74;84.41
24013;BME280;12220;50.194;18.948;2023-02-03T15:21:19;101021.46;;;2.77;84.58
24013;BME280;12220;50.194;18.948;2023-02-03T15:23:23;101030.38;;;2.81;84.45
24013;BME280;12220;50.194;18.948;2023-02-03T15:25:30;101028.43;;;2.85;84.19
24013;BME280;12220;50.194;18.948;2023-02-03T15:27:42;101024.70;;;2.89;84.25
24013;BME280;12220;50.194;18.948;2023-02-03T15:29:43;99980.06;;;-3.38;83.64
24013;BME280;12220;50.194;18.948;2023-02-03T15:31:47;101013.60;;;2.96;84.34
24013;BME280;12220;50.194;18.948;2023-02-03T15:33:52;100999.91;;;3.01;84.42
24013;BME280;12220;50.194;18.948;2023-02-03T15:36:02;100982.59;;;3.07;84.36
24013;BME280;12220;50.194;18.948;2023-02-03T15:38:18;101001.41;;;3.10;84.43
24013;BME280;12220;50.194;18.948;2023-02-03T15:40:25;101013.91;;;3.14;84.45
24013;BME280;12220;50.194;18.948;2023-02-03T15:42:38;101021.86;;;3.19;84.41
24013;BME280;12220;50.194;18.948;2023-02-03T15:44:51;101034.41;;;3.21;84.35
24013;BME280;12220;50.194;18.948;2023-02-03T15:46:53;101047.72;;;3.27;84.27
24013;BME280;12220;50.194;18.948;2023-02-03T15:49:13;100809.70;;;1.98;83.96
24013;BME280;12220;50.194;18.948;2023-02-03T15:51:36;101025.81;;;3.35;84.09
24013;BME280;12220;50.194;18.948;2023-02-03T15:54:00;101030.15;;;3.39;84.22
24013;BME280;12220;50.194;18.948;2023-02-03T15:56:32;101027.36;;;3.42;84.38
24013;BME280;12220;50.194;18.948;2023-02-03T15:58:37;101024.55;;;3.45;84.44
24013;BME280;12220;50.194;18.948;2023-02-03T16:00:48;101037.04;;;3.49;84.43
24013;BME280;12220;50.194;18.948;2023-02-03T16:07:38;101041.06;;;3.63;84.56
24013;BME280;12220;50.194;18.948;2023-02-03T16:09:40;101042.73;;;3.67;84.68
24013;BME280;12220;50.194;18.948;2023-02-03T16:11:43;101042.55;;;3.72;84.67
24013;BME280;12220;50.194;18.948;2023-02-03T16:18:22;101043.85;;;3.85;84.44
24013;BME280;12220;50.194;18.948;2023-02-03T16:20:26;101071.70;;;3.89;84.40
24013;BME280;12220;50.194;18.948;2023-02-03T16:27:31;101054.16;;;3.99;84.29
24013;BME280;12220;50.194;18.948;2023-02-03T16:29:38;101055.00;;;4.01;84.11
24013;BME280;12220;50.194;18.948;2023-02-03T16:32:00;101046.88;;;4.01;84.05
24013;BME280;12220;50.194;18.948;2023-02-03T16:34:21;101055.99;;;3.98;84.10
24013;BME280;12220;50.194;18.948;2023-02-03T16:36:43;101055.93;;;4.00;84.06
24013;BME280;12220;50.194;18.948;2023-02-03T16:39:09;101044.16;;;4.01;83.98
24013;BME280;12220;50.194;18.948;2023-02-03T16:41:25;101045.88;;;4.04;83.98
24013;BME280;12220;50.194;18.948;2023-02-03T16:43:46;101043.98;;;4.06;83.91
24013;BME280;12220;50.194;18.948;2023-02-03T16:46:10;101055.70;;;4.06;83.80
24013;BME280;12220;50.194;18.948;2023-02-03T16:48:29;101057.41;;;4.09;83.77
24013;BME280;12220;50.194;18.948;2023-02-03T16:50:51;101049.29;;;4.09;83.75
24013;BME280;12220;50.194;18.948;2023-02-03T16:52:58;101052.89;;;4.09;83.76
24013;BME280;12220;50.194;18.948;2023-02-03T16:54:59;101061.84;;;4.11;83.72
24013;BME280;12220;50.194;18.948;2023-02-03T16:57:00;101060.96;;;4.11;83.66
24013;BME280;12220;50.194;18.948;2023-02-03T16:59:06;101066.39;;;4.11;83.65
24013;BME280;12220;50.194;18.948;2023-02-03T17:01:08;101060.96;;;4.11;83.62
24013;BME280;12220;50.194;18.948;2023-02-03T17:03:13;101060.96;;;4.11;83.62
24013;BME280;12220;50.194;18.948;2023-02-03T17:05:18;101060.91;;;4.12;83.69
24013;BME280;12220;50.194;18.948;2023-02-03T17:07:21;101068.06;;;4.13;83.68
24013;BME280;12220;50.194;18.948;2023-02-03T17:09:22;101075.27;;;4.14;83.61
24013;BME280;12220;50.194;18.948;2023-02-03T17:11:25;101077.11;;;4.14;83.61
24013;BME280;12220;50.194;18.948;2023-02-03T17:13:27;101081.50;;;4.16;83.59
24013;BME280;12220;50.194;18.948;2023-02-03T17:15:45;101075.21;;;4.16;83.67
24013;BME280;12220;50.194;18.948;2023-02-03T17:17:58;101078.80;;;4.16;83.69
24013;BME280;12220;50.194;18.948;2023-02-03T17:20:03;101064.30;;;4.17;83.64
24013;BME280;12220;50.194;18.948;2023-02-03T17:22:19;101082.35;;;4.18;83.65
24013;BME280;12220;50.194;18.948;2023-02-03T17:26:51;101077.52;;;4.27;83.54
24013;BME280;12220;50.194;18.948;2023-02-03T17:28:54;101087.34;;;4.29;83.52
24013;BME280;12220;50.194;18.948;2023-02-03T17:31:06;101095.54;;;4.28;83.54
24013;BME280;12220;50.194;18.948;2023-02-03T17:33:08;101083.75;;;4.29;83.49
24013;BME280;12220;50.194;18.948;2023-02-03T17:35:16;101099.91;;;4.32;83.50
24013;BME280;12220;50.194;18.948;2023-02-03T17:37:17;101099.84;;;4.33;83.51
24013;BME280;12220;50.194;18.948;2023-02-03T17:39:19;101099.77;;;4.35;83.51
24013;BME280;12220;50.194;18.948;2023-02-03T17:41:26;101117.95;;;4.33;83.55
24013;BME280;12220;50.194;18.948;2023-02-03T17:43:30;101121.41;;;4.36;83.49
24013;BME280;12220;50.194;18.948;2023-02-03T17:45:39;101115.05;;;4.38;83.45
24013;BME280;12220;50.194;18.948;2023-02-03T17:47:41;101116.84;;;4.39;83.38
24013;BME280;12220;50.194;18.948;2023-02-03T17:50:03;100824.56;;;2.64;83.15
24013;BME280;12220;50.194;18.948;2023-02-03T17:52:07;101126.71;;;4.40;83.34
24013;BME280;12220;50.194;18.948;2023-02-03T17:54:10;101128.50;;;4.41;83.29
24013;BME280;12220;50.194;18.948;2023-02-03T17:56:14;101134.78;;;4.41;83.25
24013;BME280;12220;50.194;18.948;2023-02-03T17:58:16;101146.60;;;4.40;83.22
24013;BME280;12220;50.194;18.948;2023-02-03T18:00:18;101144.00;;;4.37;83.25
24013;BME280;12220;50.194;18.948;2023-02-03T18:02:20;101151.17;;;4.38;83.25
24013;BME280;12220;50.194;18.948;2023-02-03T18:04:25;101153.84;;;4.40;83.21
24013;BME280;12220;50.194;18.948;2023-02-03T18:06:30;101161.03;;;4.41;83.21
24013;BME280;12220;50.194;18.948;2023-02-03T18:08:35;101163.74;;;4.41;83.15
24013;BME280;12220;50.194;18.948;2023-02-03T18:10:37;101163.74;;;4.41;83.13
24013;BME280;12220;50.194;18.948;2023-02-03T18:12:39;101161.90;;;4.41;83.16
24013;BME280;12220;50.194;18.948;2023-02-03T18:14:44;101168.35;;;4.39;83.31
24013;BME280;12220;50.194;18.948;2023-02-03T18:16:46;101169.23;;;4.39;83.27
24013;BME280;12220;50.194;18.948;2023-02-03T18:18:47;101162.93;;;4.39;83.26
24013;BME280;12220;50.194;18.948;2023-02-03T18:20:52;101160.22;;;4.39;83.17
24013;BME280;12220;50.194;18.948;2023-02-03T18:22:59;101154.79;;;4.39;83.14
24013;BME280;12220;50.194;18.948;2023-02-03T18:25:01;101154.79;;;4.39;83.13
24013;BME280;12220;50.194;18.948;2023-02-03T18:27:05;100926.10;;;2.98;82.96
24013;BME280;12220;50.194;18.948;2023-02-03T18:29:09;101167.44;;;4.38;83.09
24013;BME280;12220;50.194;18.948;2023-02-03T18:31:15;101160.28;;;4.37;83.12
24013;BME280;12220;50.194;18.948;2023-02-03T18:33:17;101175.63;;;4.36;83.07
24013;BME280;12220;50.194;18.948;2023-02-03T18:35:19;101174.88;;;4.33;83.19
24013;BME280;12220;50.194;18.948;2023-02-03T18:37:21;101181.18;;;4.33;83.16
24013;BME280;12220;50.194;18.948;2023-02-03T18:39:35;101180.30;;;4.33;83.23
24013;BME280;12220;50.194;18.948;2023-02-03T18:41:37;101186.66;;;4.32;83.18
24013;BME280;12220;50.194;18.948;2023-02-03T18:43:39;101186.73;;;4.30;83.18
24013;BME280;12220;50.194;18.948;2023-02-03T18:45:41;101198.55;;;4.28;83.46
24013;BME280;12220;50.194;18.948;2023-02-03T18:47:48;101191.27;;;4.30;83.27
24013;BME280;12220;50.194;18.948;2023-02-03T18:49:50;101196.64;;;4.31;83.25
24013;BME280;12220;50.194;18.948;2023-02-03T18:51:51;101191.15;;;4.33;83.23
24013;BME280;12220;50.194;18.948;2023-02-03T18:53:58;101192.93;;;4.34;83.19
24013;BME280;12220;50.194;18.948;2023-02-03T18:58:30;101197.27;;;4.38;83.13
24013;BME280;12220;50.194;18.948;2023-02-03T19:00:31;101187.33;;;4.39;83.09
24013;BME280;12220;50.194;18.948;2023-02-03T19:02:33;101191.04;;;4.36;83.12
24013;BME280;12220;50.194;18.948;2023-02-03T19:04:35;101192.88;;;4.35;83.05
24013;BME280;12220;50.194;18.948;2023-02-03T19:06:38;101193.75;;;4.36;83.02
24013;BME280;12220;50.194;18.948;2023-02-03T19:11:05;101203.80;;;4.32;82.98
24013;BME280;12220;50.194;18.948;2023-02-03T19:13:07;101199.29;;;4.33;82.98